sensor_id;sensor_type;location;lat;lon;timestamp;pressure;altitude;pressure_sealevel;temperature;humidity
11347;BME280;5728;42.722;23.258;2022-10-16T00:02:14;95394.22;;;8.16;98.40
11347;BME280;5728;42.722;23.258;2022-10-16T00:04:41;95403.72;;;8.21;98.85
11347;BME280;5728;42.722;23.258;2022-10-16T00:07:08;95405.59;;;8.74;100.00
11347;BME280;5728;42.722;23.258;2022-10-16T00:09:35;95413.25;;;8.28;98.47
11347;BME280;5728;42.722;23.258;2022-10-16T00:12:03;95408.88;;;8.12;98.91
11347;BME280;5728;42.722;23.258;2022-10-16T00:14:32;95403.84;;;8.43;98.62
11347;BME280;5728;42.722;23.258;2022-10-16T00:16:58;95403.81;;;8.38;97.43
11347;BME280;5728;42.722;23.258;2022-10-16T00:19:25;95409.00;;;8.46;96.39
11347;BME280;5728;42.722;23.258;2022-10-16T00:21:52;95417.63;;;8.48;97.90
11347;BME280;5728;42.722;23.258;2022-10-16T00:24:19;95420.06;;;8.16;96.70
11347;BME280;5728;42.722;23.258;2022-10-16T00:26:49;95424.16;;;7.75;97.71
11347;BME280;5728;42.722;23.258;2022-10-16T00:29:17;95423.22;;;7.62;98.84
11347;BME280;5728;42.722;23.258;2022-10-16T00:31:44;95425.66;;;7.41;100.00
11347;BME280;5728;42.722;23.258;2022-10-16T00:34:11;95422.47;;;7.81;99.52
11347;BME280;5728;42.722;23.258;2022-10-16T00:36:38;95426.84;;;7.94;99.70
11347;BME280;5728;42.722;23.258;2022-10-16T00:39:04;95428.31;;;7.50;99.56
11347;BME280;5728;42.722;23.258;2022-10-16T00:41:32;95427.44;;;7.46;100.00
11347;BME280;5728;42.722;23.258;2022-10-16T00:44:00;95432.69;;;7.63;99.49
11347;BME280;5728;42.722;23.258;2022-10-16T00:46:34;95421.50;;;7.59;99.34
11347;BME280;5728;42.722;23.258;2022-10-16T00:49:03;95417.09;;;7.42;100.00
11347;BME280;5728;42.722;23.258;2022-10-16T00:51:41;95426.44;;;7.31;100.00
11347;BME280;5728;42.722;23.258;2022-10-16T00:54:10;95410.78;;;7.08;100.00
11347;BME280;5728;42.722;23.258;2022-10-16T00:56:38;95414.41;;;7.33;100.00
11347;BME280;5728;42.722;23.258;2022-10-16T00:59:10;95419.69;;;7.46;100.00
11347;BME280;5728;42.722;23.258;2022-10-16T01:01:41;95419.56;;;7.27;100.00
11347;BME280;5728;42.722;23.258;2022-10-16T01:04:08;95416.09;;;7.25;100.00
11347;BME280;5728;42.722;23.258;2022-10-16T01:06:40;95420.28;;;7.11;100.00
11347;BME280;5728;42.722;23.258;2022-10-16T01:09:16;95422.88;;;7.14;100.00
11347;BME280;5728;42.722;23.258;2022-10-16T01:11:51;95422.72;;;6.95;100.00
11347;BME280;5728;42.722;23.258;2022-10-16T01:14:27;95434.97;;;7.19;100.00
11347;BME280;5728;42.722;23.258;2022-10-16T01:17:03;95423.75;;;7.16;100.00
11347;BME280;5728;42.722;23.258;2022-10-16T01:19:58;95421.03;;;7.00;100.00
11347;BME280;5728;42.722;23.258;2022-10-16T01:22:35;95421.13;;;7.13;100.00
11347;BME280;5728;42.722;23.258;2022-10-16T01:25:05;95422.91;;;7.17;100.00
11347;BME280;5728;42.722;23.258;2022-10-16T01:27:36;95415.97;;;7.06;100.00
11347;BME280;5728;42.722;23.258;2022-10-16T01:30:10;95418.50;;;7.03;100.00
11347;BME280;5728;42.722;23.258;2022-10-16T01:32:41;95417.72;;;7.12;100.00
11347;BME280;5728;42.722;23.258;2022-10-16T01:35:11;95418.53;;;7.06;100.00
11347;BME280;5728;42.722;23.258;2022-10-16T01:37:46;95426.28;;;7.13;100.00
11347;BME280;5728;42.722;23.258;2022-10-16T01:40:17;95421.88;;;6.96;100.00
11347;BME280;5728;42.722;23.258;2022-10-16T01:42:52;95418.56;;;7.13;100.00
11347;BME280;5728;42.722;23.258;2022-10-16T01:45:21;95427.31;;;7.33;100.00
11347;BME280;5728;42.722;23.258;2022-10-16T01:47:49;95428.31;;;7.51;100.00
11347;BME280;5728;42.722;23.258;2022-10-16T01:50:18;95427.63;;;7.78;100.00
11347;BME280;5728;42.722;23.258;2022-10-16T01:52:49;95433.09;;;8.36;100.00
11347;BME280;5728;42.722;23.258;2022-10-16T01:55:22;95430.53;;;8.40;100.00
11347;BME280;5728;42.722;23.258;2022-10-16T01:57:52;95434.56;;;7.91;98.60
11347;BME280;5728;42.722;23.258;2022-10-16T02:00:21;95447.59;;;8.14;100.00
11347;BME280;5728;42.722;23.258;2022-10-16T02:02:50;95442.69;;;8.76;100.00
11347;BME280;5728;42.722;23.258;2022-10-16T02:05:22;95436.69;;;9.01;99.89
11347;BME280;5728;42.722;23.258;2022-10-16T02:07:51;95441.88;;;9.19;98.46
11347;BME280;5728;42.722;23.258;2022-10-16T02:10:18;95449.63;;;9.34;95.51
11347;BME280;5728;42.722;23.258;2022-10-16T02:12:49;95453.94;;;9.20;95.64
11347;BME280;5728;42.722;23.258;2022-10-16T02:15:19;95447.91;;;9.27;96.10
11347;BME280;5728;42.722;23.258;2022-10-16T02:17:45;95454.84;;;9.46;94.98
11347;BME280;5728;42.722;23.258;2022-10-16T02:20:12;95452.25;;;9.24;95.47
11347;BME280;5728;42.722;23.258;2022-10-16T02:22:41;95459.13;;;9.50;94.77
11347;BME280;5728;42.722;23.258;2022-10-16T02:25:11;95456.53;;;9.55;93.96
11347;BME280;5728;42.722;23.258;2022-10-16T02:27:42;95461.72;;;9.58;93.63
11347;BME280;5728;42.722;23.258;2022-10-16T02:30:15;95466.88;;;9.55;93.78
11347;BME280;5728;42.722;23.258;2022-10-16T02:32:47;95471.22;;;9.56;91.59
11347;BME280;5728;42.722;23.258;2022-10-16T02:35:16;95459.16;;;9.38;92.26
11347;BME280;5728;42.722;23.258;2022-10-16T02:37:44;95458.28;;;9.14;90.02
11347;BME280;5728;42.722;23.258;2022-10-16T02:40:12;95460.88;;;9.33;93.75
11347;BME280;5728;42.722;23.258;2022-10-16T02:42:40;95454.81;;;9.30;93.77
11347;BME280;5728;42.722;23.258;2022-10-16T02:45:09;95467.75;;;9.37;91.21
11347;BME280;5728;42.722;23.258;2022-10-16T02:47:36;95472.06;;;9.17;90.05
11347;BME280;5728;42.722;23.258;2022-10-16T02:50:05;95477.38;;;7.56;93.22
11347;BME280;5728;42.722;23.258;2022-10-16T02:52:32;95477.94;;;7.20;96.51
11347;BME280;5728;42.722;23.258;2022-10-16T02:54:59;95484.94;;;7.33;97.06
11347;BME280;5728;42.722;23.258;2022-10-16T02:57:26;95476.91;;;6.98;97.18
11347;BME280;5728;42.722;23.258;2022-10-16T02:59:52;95478.56;;;6.93;98.28
11347;BME280;5728;42.722;23.258;2022-10-16T03:02:19;95480.94;;;6.75;98.51
11347;BME280;5728;42.722;23.258;2022-10-16T03:04:46;95483.31;;;6.54;100.00
11347;BME280;5728;42.722;23.258;2022-10-16T03:07:14;95483.28;;;7.40;100.00
11347;BME280;5728;42.722;23.258;2022-10-16T03:09:41;95473.03;;;7.47;99.38
11347;BME280;5728;42.722;23.258;2022-10-16T03:12:08;95477.78;;;8.19;100.00
11347;BME280;5728;42.722;23.258;2022-10-16T03:14:37;95488.13;;;8.24;100.00
11347;BME280;5728;42.722;23.258;2022-10-16T03:17:05;95476.25;;;8.58;97.54
11347;BME280;5728;42.722;23.258;2022-10-16T03:19:32;95484.06;;;8.86;95.58
11347;BME280;5728;42.722;23.258;2022-10-16T03:21:58;95473.75;;;9.05;94.73
11347;BME280;5728;42.722;23.258;2022-10-16T03:24:26;95487.47;;;8.63;93.91
11347;BME280;5728;42.722;23.258;2022-10-16T03:26:53;95489.13;;;8.52;95.34
11347;BME280;5728;42.722;23.258;2022-10-16T03:29:20;95493.44;;;8.50;96.58
11347;BME280;5728;42.722;23.258;2022-10-16T03:31:47;95493.53;;;8.77;93.91
11347;BME280;5728;42.722;23.258;2022-10-16T03:34:14;95492.72;;;8.99;92.97
11347;BME280;5728;42.722;23.258;2022-10-16T03:36:41;95493.47;;;8.62;94.09
11347;BME280;5728;42.722;23.258;2022-10-16T03:39:08;95487.38;;;8.42;92.20
11347;BME280;5728;42.722;23.258;2022-10-16T03:41:36;95495.16;;;8.54;93.00
11347;BME280;5728;42.722;23.258;2022-10-16T03:44:03;95488.06;;;8.16;92.42
11347;BME280;5728;42.722;23.258;2022-10-16T03:46:30;95487.97;;;7.92;91.00
11347;BME280;5728;42.722;23.258;2022-10-16T03:48:56;95484.09;;;7.36;93.01
11347;BME280;5728;42.722;23.258;2022-10-16T03:51:23;95485.47;;;6.97;95.28
11347;BME280;5728;42.722;23.258;2022-10-16T03:53:50;95491.19;;;6.66;96.41
11347;BME280;5728;42.722;23.258;2022-10-16T03:56:16;95491.22;;;6.72;97.48
11347;BME280;5728;42.722;23.258;2022-10-16T03:58:45;95493.28;;;6.27;98.33
11347;BME280;5728;42.722;23.258;2022-10-16T04:01:11;95496.81;;;6.35;99.62
11347;BME280;5728;42.722;23.258;2022-10-16T04:03:38;95489.69;;;6.14;99.33
11347;BME280;5728;42.722;23.258;2022-10-16T04:06:05;95494.66;;;6.01;100.00
11347;BME280;5728;42.722;23.258;2022-10-16T04:08:31;95496.38;;;5.99;100.00
11347;BME280;5728;42.722;23.258;2022-10-16T04:11:00;95498.53;;;5.74;100.00
11347;BME280;5728;42.722;23.258;2022-10-16T04:13:26;95499.41;;;5.73;100.00
11347;BME280;5728;42.722;23.258;2022-10-16T04:15:55;95493.75;;;5.97;100.00
11347;BME280;5728;42.722;23.258;2022-10-16T04:18:21;95495.88;;;6.30;100.00
11347;BME280;5728;42.722;23.258;2022-10-16T04:20:48;95499.09;;;6.11;100.00
11347;BME280;5728;42.722;23.258;2022-10-16T04:23:15;95493.53;;;5.84;100.00
11347;BME280;5728;42.722;23.258;2022-10-16T04:25:41;95500.25;;;6.37;100.00
11347;BME280;5728;42.722;23.258;2022-10-16T04:28:08;95502.06;;;6.41;100.00
11347;BME280;5728;42.722;23.258;2022-10-16T04:30:37;95504.25;;;6.12;100.00
11347;BME280;5728;42.722;23.258;2022-10-16T04:33:06;95496.25;;;5.93;100.00
11347;BME280;5728;42.722;23.258;2022-10-16T04:35:32;95496.66;;;6.23;100.00
11347;BME280;5728;42.722;23.258;2022-10-16T04:37:59;95499.75;;;6.64;100.00
11347;BME280;5728;42.722;23.258;2022-10-16T04:40:26;95507.28;;;6.50;100.00
11347;BME280;5728;42.722;23.258;2022-10-16T04:42:52;95513.09;;;6.32;100.00
11347;BME280;5728;42.722;23.258;2022-10-16T04:45:19;95507.00;;;6.26;100.00
11347;BME280;5728;42.722;23.258;2022-10-16T04:47:46;95514.31;;;6.63;100.00
11347;BME280;5728;42.722;23.258;2022-10-16T04:50:14;95512.34;;;7.19;100.00
11347;BME280;5728;42.722;23.258;2022-10-16T04:52:41;95514.66;;;7.97;100.00
11347;BME280;5728;42.722;23.258;2022-10-16T04:55:08;95518.56;;;7.45;100.00
11347;BME280;5728;42.722;23.258;2022-10-16T04:57:34;95524.94;;;6.90;98.40
11347;BME280;5728;42.722;23.258;2022-10-16T05:00:02;95527.06;;;6.53;99.39
11347;BME280;5728;42.722;23.258;2022-10-16T05:02:29;95540.75;;;6.47;100.00
11347;BME280;5728;42.722;23.258;2022-10-16T05:04:56;95535.19;;;6.14;100.00
11347;BME280;5728;42.722;23.258;2022-10-16T05:07:24;95530.44;;;6.44;100.00
11347;BME280;5728;42.722;23.258;2022-10-16T05:09:51;95539.63;;;6.24;100.00
11347;BME280;5728;42.722;23.258;2022-10-16T05:12:18;95539.72;;;6.31;100.00
11347;BME280;5728;42.722;23.258;2022-10-16T05:14:45;95543.38;;;6.50;100.00
11347;BME280;5728;42.722;23.258;2022-10-16T05:17:12;95540.56;;;6.32;100.00
11347;BME280;5728;42.722;23.258;2022-10-16T05:19:39;95540.78;;;6.50;100.00
11347;BME280;5728;42.722;23.258;2022-10-16T05:22:06;95535.41;;;7.04;100.00
11347;BME280;5728;42.722;23.258;2022-10-16T05:24:34;95528.34;;;6.86;100.00
11347;BME280;5728;42.722;23.258;2022-10-16T05:27:01;95546.44;;;6.91;100.00
11347;BME280;5728;42.722;23.258;2022-10-16T05:29:28;95555.56;;;6.63;99.60
11347;BME280;5728;42.722;23.258;2022-10-16T05:31:54;95552.78;;;6.50;99.42
11347;BME280;5728;42.722;23.258;2022-10-16T05:34:21;95545.97;;;6.52;99.22
11347;BME280;5728;42.722;23.258;2022-10-16T05:36:48;95551.31;;;6.70;99.05
11347;BME280;5728;42.722;23.258;2022-10-16T05:39:16;95551.13;;;7.30;97.12
11347;BME280;5728;42.722;23.258;2022-10-16T05:41:44;95553.38;;;6.98;96.56
11347;BME280;5728;42.722;23.258;2022-10-16T05:44:11;95552.78;;;7.23;96.89
11347;BME280;5728;42.722;23.258;2022-10-16T05:46:38;95566.75;;;7.48;97.18
11347;BME280;5728;42.722;23.258;2022-10-16T05:49:05;95564.47;;;7.81;95.62
11347;BME280;5728;42.722;23.258;2022-10-16T05:51:32;95562.91;;;8.06;96.47
11347;BME280;5728;42.722;23.258;2022-10-16T05:53:58;95559.94;;;8.81;99.48
11347;BME280;5728;42.722;23.258;2022-10-16T05:56:25;95564.34;;;9.11;98.39
11347;BME280;5728;42.722;23.258;2022-10-16T05:58:53;95566.16;;;9.46;96.03
11347;BME280;5728;42.722;23.258;2022-10-16T06:01:20;95568.72;;;9.72;95.54
11347;BME280;5728;42.722;23.258;2022-10-16T06:03:49;95570.50;;;10.17;94.02
11347;BME280;5728;42.722;23.258;2022-10-16T06:06:18;95580.00;;;10.21;92.03
11347;BME280;5728;42.722;23.258;2022-10-16T06:08:47;95586.88;;;10.17;90.59
11347;BME280;5728;42.722;23.258;2022-10-16T06:11:15;95586.00;;;10.27;91.31
11347;BME280;5728;42.722;23.258;2022-10-16T06:13:42;95591.09;;;10.76;90.33
11347;BME280;5728;42.722;23.258;2022-10-16T06:16:12;95593.63;;;10.99;87.75
11347;BME280;5728;42.722;23.258;2022-10-16T06:18:39;95590.09;;;11.13;85.33
11347;BME280;5728;42.722;23.258;2022-10-16T06:21:10;95588.34;;;11.20;82.06
11347;BME280;5728;42.722;23.258;2022-10-16T06:23:40;95591.72;;;11.34;80.97
11347;BME280;5728;42.722;23.258;2022-10-16T06:26:07;95600.34;;;11.39;83.20
11347;BME280;5728;42.722;23.258;2022-10-16T06:28:34;95610.63;;;11.57;85.44
11347;BME280;5728;42.722;23.258;2022-10-16T06:31:02;95610.59;;;11.63;82.97
11347;BME280;5728;42.722;23.258;2022-10-16T06:33:30;95607.13;;;11.67;79.00
11347;BME280;5728;42.722;23.258;2022-10-16T06:36:01;95607.97;;;11.71;82.30
11347;BME280;5728;42.722;23.258;2022-10-16T06:38:28;95602.72;;;11.83;82.92
11347;BME280;5728;42.722;23.258;2022-10-16T06:40:56;95606.09;;;11.91;84.70
11347;BME280;5728;42.722;23.258;2022-10-16T06:43:22;95618.31;;;11.81;81.15
11347;BME280;5728;42.722;23.258;2022-10-16T06:45:52;95619.78;;;12.15;82.56
11347;BME280;5728;42.722;23.258;2022-10-16T06:48:20;95627.34;;;12.46;79.08
11347;BME280;5728;42.722;23.258;2022-10-16T06:50:58;95636.16;;;12.27;78.62
11347;BME280;5728;42.722;23.258;2022-10-16T06:53:27;95625.63;;;12.42;77.20
11347;BME280;5728;42.722;23.258;2022-10-16T06:55:54;95639.53;;;12.41;77.19
11347;BME280;5728;42.722;23.258;2022-10-16T06:58:21;95627.19;;;12.59;76.77
11347;BME280;5728;42.722;23.258;2022-10-16T07:00:48;95640.03;;;12.77;77.28
11347;BME280;5728;42.722;23.258;2022-10-16T07:03:15;95630.41;;;12.84;76.77
11347;BME280;5728;42.722;23.258;2022-10-16T07:05:42;95627.00;;;12.79;78.95
11347;BME280;5728;42.722;23.258;2022-10-16T07:08:10;95645.06;;;12.94;76.76
11347;BME280;5728;42.722;23.258;2022-10-16T07:10:37;95640.53;;;13.14;76.95
11347;BME280;5728;42.722;23.258;2022-10-16T07:13:04;95641.94;;;13.39;77.68
11347;BME280;5728;42.722;23.258;2022-10-16T07:15:33;95663.97;;;13.14;75.81
11347;BME280;5728;42.722;23.258;2022-10-16T07:18:00;95659.63;;;13.16;75.88
11347;BME280;5728;42.722;23.258;2022-10-16T07:20:27;95644.22;;;13.67;75.25
11347;BME280;5728;42.722;23.258;2022-10-16T07:22:53;95647.34;;;13.91;75.02
11347;BME280;5728;42.722;23.258;2022-10-16T07:25:22;95641.28;;;13.91;74.48
11347;BME280;5728;42.722;23.258;2022-10-16T07:27:49;95642.00;;;14.02;74.59
11347;BME280;5728;42.722;23.258;2022-10-16T07:30:15;95644.44;;;14.11;72.77
11347;BME280;5728;42.722;23.258;2022-10-16T07:32:42;95645.66;;;13.89;72.51
11347;BME280;5728;42.722;23.258;2022-10-16T07:35:09;95653.75;;;14.29;73.62
11347;BME280;5728;42.722;23.258;2022-10-16T07:37:36;95648.88;;;14.61;72.26
11347;BME280;5728;42.722;23.258;2022-10-16T07:40:03;95654.34;;;14.98;69.75
11347;BME280;5728;42.722;23.258;2022-10-16T07:42:31;95654.72;;;14.77;67.59
11347;BME280;5728;42.722;23.258;2022-10-16T07:44:58;95653.56;;;14.42;68.60
11347;BME280;5728;42.722;23.258;2022-10-16T07:47:25;95652.94;;;14.79;68.22
11347;BME280;5728;42.722;23.258;2022-10-16T07:49:51;95649.50;;;14.77;67.79
11347;BME280;5728;42.722;23.258;2022-10-16T07:52:18;95658.00;;;14.37;67.51
11347;BME280;5728;42.722;23.258;2022-10-16T07:54:45;95654.94;;;14.64;68.84
11347;BME280;5728;42.722;23.258;2022-10-16T07:57:12;95654.34;;;14.96;67.04
11347;BME280;5728;42.722;23.258;2022-10-16T07:59:45;95648.53;;;15.28;67.48
11347;BME280;5728;42.722;23.258;2022-10-16T08:02:12;95662.19;;;14.46;67.27
11347;BME280;5728;42.722;23.258;2022-10-16T08:04:39;95654.63;;;15.27;67.69
11347;BME280;5728;42.722;23.258;2022-10-16T08:07:07;95651.06;;;15.31;66.96
11347;BME280;5728;42.722;23.258;2022-10-16T08:09:34;95652.72;;;15.79;65.44
11347;BME280;5728;42.722;23.258;2022-10-16T08:12:00;95654.66;;;16.10;63.56
11347;BME280;5728;42.722;23.258;2022-10-16T08:14:27;95654.00;;;16.00;63.06
11347;BME280;5728;42.722;23.258;2022-10-16T08:16:55;95650.94;;;16.20;64.49
11347;BME280;5728;42.722;23.258;2022-10-16T08:19:22;95642.63;;;16.76;62.03
11347;BME280;5728;42.722;23.258;2022-10-16T08:21:49;95648.13;;;16.64;60.63
11347;BME280;5728;42.722;23.258;2022-10-16T08:24:15;95650.09;;;16.56;61.54
11347;BME280;5728;42.722;23.258;2022-10-16T08:26:42;95651.66;;;16.97;59.02
11347;BME280;5728;42.722;23.258;2022-10-16T08:29:09;95646.84;;;16.45;61.13
11347;BME280;5728;42.722;23.258;2022-10-16T08:31:36;95643.31;;;16.83;59.30
11347;BME280;5728;42.722;23.258;2022-10-16T08:34:04;95639.19;;;17.39;58.79
11347;BME280;5728;42.722;23.258;2022-10-16T08:36:32;95639.22;;;17.69;56.89
11347;BME280;5728;42.722;23.258;2022-10-16T08:38:59;95642.38;;;18.08;55.22
11347;BME280;5728;42.722;23.258;2022-10-16T08:45:19;95641.03;;;17.95;55.25
11347;BME280;5728;42.722;23.258;2022-10-16T08:47:57;95641.91;;;18.23;53.84
11347;BME280;5728;42.722;23.258;2022-10-16T08:50:30;95647.97;;;18.55;53.17
11347;BME280;5728;42.722;23.258;2022-10-16T08:52:58;95645.44;;;18.78;51.24
11347;BME280;5728;42.722;23.258;2022-10-16T08:55:31;95644.19;;;19.14;50.48
11347;BME280;5728;42.722;23.258;2022-10-16T08:58:00;95662.72;;;18.85;49.40
11347;BME280;5728;42.722;23.258;2022-10-16T09:00:27;95654.25;;;19.01;49.17
11347;BME280;5728;42.722;23.258;2022-10-16T09:03:03;95655.50;;;18.65;50.42
11347;BME280;5728;42.722;23.258;2022-10-16T09:05:56;95648.72;;;19.10;49.76
11347;BME280;5728;42.722;23.258;2022-10-16T09:08:30;95645.13;;;19.13;47.48
11347;BME280;5728;42.722;23.258;2022-10-16T09:11:07;95651.28;;;19.61;47.01
11347;BME280;5728;42.722;23.258;2022-10-16T09:13:42;95643.66;;;19.79;48.60
11347;BME280;5728;42.722;23.258;2022-10-16T09:16:16;95651.97;;;19.90;47.93
11347;BME280;5728;42.722;23.258;2022-10-16T09:18:50;95642.81;;;20.00;44.65
11347;BME280;5728;42.722;23.258;2022-10-16T09:21:23;95651.97;;;19.90;45.69
11347;BME280;5728;42.722;23.258;2022-10-16T09:23:51;95643.84;;;19.72;45.42
11347;BME280;5728;42.722;23.258;2022-10-16T09:26:20;95641.13;;;20.44;43.82
11347;BME280;5728;42.722;23.258;2022-10-16T09:28:47;95640.38;;;20.83;43.62
11347;BME280;5728;42.722;23.258;2022-10-16T09:31:19;95646.41;;;20.44;45.20
11347;BME280;5728;42.722;23.258;2022-10-16T09:33:50;95641.84;;;20.47;44.29
11347;BME280;5728;42.722;23.258;2022-10-16T09:36:20;95643.34;;;21.18;40.45
11347;BME280;5728;42.722;23.258;2022-10-16T09:38:48;95643.88;;;21.26;41.86
11347;BME280;5728;42.722;23.258;2022-10-16T09:41:17;95643.72;;;21.69;41.11
11347;BME280;5728;42.722;23.258;2022-10-16T09:43:52;95640.78;;;22.14;41.66
11347;BME280;5728;42.722;23.258;2022-10-16T09:46:28;95633.06;;;21.71;39.64
11347;BME280;5728;42.722;23.258;2022-10-16T09:48:58;95623.91;;;20.78;42.52
11347;BME280;5728;42.722;23.258;2022-10-16T09:51:29;95630.81;;;21.43;41.23
11347;BME280;5728;42.722;23.258;2022-10-16T09:53:59;95624.16;;;20.29;42.39
11347;BME280;5728;42.722;23.258;2022-10-16T09:56:27;95623.13;;;20.96;43.76
11347;BME280;5728;42.722;23.258;2022-10-16T09:58:56;95624.97;;;21.55;40.25
11347;BME280;5728;42.722;23.258;2022-10-16T10:01:28;95630.88;;;21.80;39.75
11347;BME280;5728;42.722;23.258;2022-10-16T10:03:56;95628.31;;;22.17;38.56
11347;BME280;5728;42.722;23.258;2022-10-16T10:06:29;95623.22;;;21.94;38.62
11347;BME280;5728;42.722;23.258;2022-10-16T10:09:04;95621.81;;;22.24;38.33
11347;BME280;5728;42.722;23.258;2022-10-16T10:11:46;95615.78;;;22.21;38.00
11347;BME280;5728;42.722;23.258;2022-10-16T10:14:23;95630.81;;;21.82;39.26
11347;BME280;5728;42.722;23.258;2022-10-16T10:16:51;95621.19;;;21.42;39.04
11347;BME280;5728;42.722;23.258;2022-10-16T10:19:22;95614.06;;;21.02;40.36
11347;BME280;5728;42.722;23.258;2022-10-16T10:21:50;95613.25;;;21.62;39.53
11347;BME280;5728;42.722;23.258;2022-10-16T10:24:19;95613.47;;;21.76;40.30
11347;BME280;5728;42.722;23.258;2022-10-16T10:26:58;95612.25;;;22.58;37.53
11347;BME280;5728;42.722;23.258;2022-10-16T10:29:46;95601.47;;;22.98;35.97
11347;BME280;5728;42.722;23.258;2022-10-16T10:32:23;95609.84;;;23.06;37.00
11347;BME280;5728;42.722;23.258;2022-10-16T10:35:07;95598.56;;;23.20;36.88
11347;BME280;5728;42.722;23.258;2022-10-16T10:37:59;95591.41;;;23.39;35.61
11347;BME280;5728;42.722;23.258;2022-10-16T10:40:37;95590.38;;;23.41;36.73
11347;BME280;5728;42.722;23.258;2022-10-16T10:43:12;95580.91;;;23.70;36.16
11347;BME280;5728;42.722;23.258;2022-10-16T10:45:46;95581.06;;;23.67;35.08
11347;BME280;5728;42.722;23.258;2022-10-16T10:48:24;95587.34;;;23.49;35.77
11347;BME280;5728;42.722;23.258;2022-10-16T10:50:57;95584.53;;;23.85;37.50
11347;BME280;5728;42.722;23.258;2022-10-16T10:53:37;95579.06;;;23.88;36.20
11347;BME280;5728;42.722;23.258;2022-10-16T10:56:18;95582.72;;;24.49;36.15
11347;BME280;5728;42.722;23.258;2022-10-16T10:59:17;95573.44;;;24.72;34.11
11347;BME280;5728;42.722;23.258;2022-10-16T11:01:50;95571.31;;;24.79;35.07
11347;BME280;5728;42.722;23.258;2022-10-16T11:04:33;95570.41;;;24.80;33.94
11347;BME280;5728;42.722;23.258;2022-10-16T11:07:07;95569.13;;;24.24;33.72
11347;BME280;5728;42.722;23.258;2022-10-16T11:09:41;95568.78;;;24.15;34.85
11347;BME280;5728;42.722;23.258;2022-10-16T11:12:14;95570.34;;;23.86;35.17
11347;BME280;5728;42.722;23.258;2022-10-16T11:14:49;95566.56;;;24.38;33.39
11347;BME280;5728;42.722;23.258;2022-10-16T11:17:21;95561.72;;;23.98;34.87
11347;BME280;5728;42.722;23.258;2022-10-16T11:19:54;95563.25;;;24.19;34.12
11347;BME280;5728;42.722;23.258;2022-10-16T11:22:30;95554.22;;;24.06;33.68
11347;BME280;5728;42.722;23.258;2022-10-16T11:25:06;95556.53;;;22.97;34.94
11347;BME280;5728;42.722;23.258;2022-10-16T11:27:43;95559.25;;;23.29;34.15
11347;BME280;5728;42.722;23.258;2022-10-16T11:30:15;95551.69;;;24.20;33.74
11347;BME280;5728;42.722;23.258;2022-10-16T11:32:53;95564.88;;;24.83;32.50
11347;BME280;5728;42.722;23.258;2022-10-16T11:35:24;95554.84;;;24.88;33.10
11347;BME280;5728;42.722;23.258;2022-10-16T11:37:54;95553.56;;;24.95;32.51
11347;BME280;5728;42.722;23.258;2022-10-16T11:40:28;95548.97;;;24.83;33.39
11347;BME280;5728;42.722;23.258;2022-10-16T11:42:59;95555.25;;;24.96;32.06
11347;BME280;5728;42.722;23.258;2022-10-16T11:45:33;95554.88;;;25.17;33.03
11347;BME280;5728;42.722;23.258;2022-10-16T11:48:10;95555.94;;;24.23;32.26
11347;BME280;5728;42.722;23.258;2022-10-16T11:50:45;95552.81;;;24.16;32.29
11347;BME280;5728;42.722;23.258;2022-10-16T11:53:20;95556.72;;;24.40;33.43
11347;BME280;5728;42.722;23.258;2022-10-16T11:55:51;95558.00;;;24.33;32.42
11347;BME280;5728;42.722;23.258;2022-10-16T11:58:24;95568.19;;;23.77;33.36
11347;BME280;5728;42.722;23.258;2022-10-16T12:00:58;95546.75;;;24.14;32.63
11347;BME280;5728;42.722;23.258;2022-10-16T12:03:30;95558.06;;;24.47;32.00
11347;BME280;5728;42.722;23.258;2022-10-16T12:06:19;95546.50;;;24.80;31.06
11347;BME280;5728;42.722;23.258;2022-10-16T12:08:51;95558.69;;;25.27;30.39
11347;BME280;5728;42.722;23.258;2022-10-16T12:11:32;95554.09;;;25.45;29.03
11347;BME280;5728;42.722;23.258;2022-10-16T12:16:54;95545.09;;;24.72;31.68
11347;BME280;5728;42.722;23.258;2022-10-16T12:19:22;95556.94;;;25.12;31.62
11347;BME280;5728;42.722;23.258;2022-10-16T12:21:51;95545.16;;;24.57;31.32
11347;BME280;5728;42.722;23.258;2022-10-16T12:24:30;95553.38;;;24.98;31.31
11347;BME280;5728;42.722;23.258;2022-10-16T12:26:59;95552.94;;;25.63;31.26
11347;BME280;5728;42.722;23.258;2022-10-16T12:29:37;95555.44;;;25.36;30.93
11347;BME280;5728;42.722;23.258;2022-10-16T12:32:18;95552.44;;;24.99;31.45
11347;BME280;5728;42.722;23.258;2022-10-16T12:34:48;95547.59;;;25.35;30.33
11347;BME280;5728;42.722;23.258;2022-10-16T12:37:20;95551.28;;;25.32;29.54
11347;BME280;5728;42.722;23.258;2022-10-16T12:39:49;95548.78;;;25.45;29.82
11347;BME280;5728;42.722;23.258;2022-10-16T12:42:31;95543.78;;;24.95;30.93
11347;BME280;5728;42.722;23.258;2022-10-16T12:44:58;95540.16;;;25.26;30.71
11347;BME280;5728;42.722;23.258;2022-10-16T12:47:36;95551.44;;;25.45;29.83
11347;BME280;5728;42.722;23.258;2022-10-16T12:50:24;95538.69;;;25.92;30.75
11347;BME280;5728;42.722;23.258;2022-10-16T12:52:52;95540.72;;;25.75;29.55
11347;BME280;5728;42.722;23.258;2022-10-16T12:55:21;95541.81;;;26.54;29.61
11347;BME280;5728;42.722;23.258;2022-10-16T12:58:09;95543.72;;;26.52;31.35
11347;BME280;5728;42.722;23.258;2022-10-16T13:00:44;95556.13;;;26.11;28.10
11347;BME280;5728;42.722;23.258;2022-10-16T13:03:43;95562.06;;;25.59;29.73
11347;BME280;5728;42.722;23.258;2022-10-16T13:06:22;95553.50;;;25.82;30.00
11347;BME280;5728;42.722;23.258;2022-10-16T13:09:04;95565.84;;;25.97;29.56
11347;BME280;5728;42.722;23.258;2022-10-16T13:11:43;95559.78;;;25.67;29.88
11347;BME280;5728;42.722;23.258;2022-10-16T13:14:37;95554.09;;;25.45;29.83
11347;BME280;5728;42.722;23.258;2022-10-16T13:17:13;95557.50;;;25.61;31.00
11347;BME280;5728;42.722;23.258;2022-10-16T13:19:51;95548.00;;;24.38;32.17
11347;BME280;5728;42.722;23.258;2022-10-16T13:22:24;95548.19;;;25.68;29.76
11347;BME280;5728;42.722;23.258;2022-10-16T13:25:02;95559.75;;;25.53;27.51
11347;BME280;5728;42.722;23.258;2022-10-16T13:27:43;95552.94;;;25.49;26.60